Blaise Diagne International Airport


Codes: GOBD/DSS
Name: Blaise Diagne International Airport
City: Dakar
Country: Senegal
Elevation: 289 ft.

Photos at Blaise Diagne International Airport


   Photos courtesy of SpottingLog. You can add your own sightings and photos by signing up for a free trial today.



No photos found.

Weather at Blaise Diagne International Airport


Time (UTC)DescriptionTempratureWindCloud coverageVisibilityPressureHumidity
16-Jun-2024 00:00Overcast Clouds26°C11 mph, SW87%10000m1014hPa89%
16-Jun-2024 03:00Overcast Clouds26°C11 mph, W91%10000m1013hPa88%
16-Jun-2024 06:00Overcast Clouds25°C9 mph, W96%10000m1012hPa88%
16-Jun-2024 09:00Overcast Clouds25°C9 mph, W98%10000m1013hPa82%
16-Jun-2024 12:00Overcast Clouds27°C11 mph, NW94%10000m1013hPa73%
16-Jun-2024 15:00Overcast Clouds29°C11 mph, W97%10000m1011hPa62%
16-Jun-2024 18:00Broken Clouds27°C11 mph, W81%10000m1011hPa69%
16-Jun-2024 21:00Scattered Clouds25°C11 mph, NW28%10000m1012hPa81%
17-Jun-2024 00:00Few Clouds24°C11 mph, NW22%10000m1013hPa83%
17-Jun-2024 03:00Clear Sky24°C11 mph, W7%10000m1011hPa84%
17-Jun-2024 06:00Scattered Clouds23°C11 mph, NW31%10000m1011hPa84%
17-Jun-2024 09:00Clear Sky25°C11 mph, W8%10000m1011hPa71%
17-Jun-2024 12:00Clear Sky28°C13 mph, W9%10000m1011hPa58%
17-Jun-2024 15:00Clear Sky28°C13 mph, W2%10000m1011hPa57%
17-Jun-2024 18:00Clear Sky26°C13 mph, W3%10000m1010hPa61%
17-Jun-2024 21:00Scattered Clouds24°C13 mph, NW45%10000m1011hPa70%
18-Jun-2024 00:00Broken Clouds24°C11 mph, W72%10000m1012hPa71%
18-Jun-2024 03:00Overcast Clouds24°C9 mph, NW100%10000m1011hPa74%
18-Jun-2024 06:00Overcast Clouds23°C4 mph, W99%10000m1010hPa78%
18-Jun-2024 09:00Overcast Clouds25°C4 mph, SW100%10000m1012hPa69%
18-Jun-2024 12:00Overcast Clouds28°C7 mph, SW97%10000m1013hPa50%
18-Jun-2024 15:00Overcast Clouds29°C11 mph, SW99%10000m1011hPa50%
18-Jun-2024 18:00Overcast Clouds27°C11 mph, SW100%10000m1010hPa60%
18-Jun-2024 21:00Overcast Clouds26°C9 mph, W97%10000m1012hPa70%
19-Jun-2024 00:00Overcast Clouds25°C9 mph, NW87%10000m1013hPa72%
19-Jun-2024 03:00Light Rain25°C9 mph, E100%9350m1014hPa76%
19-Jun-2024 06:00Moderate Rain25°C2 mph, SE100%10000m1012hPa77%
19-Jun-2024 09:00Light Rain24°C4 mph, S100%10000m1014hPa82%
19-Jun-2024 12:00Light Rain27°C7 mph, SW100%10000m1014hPa70%
19-Jun-2024 15:00Overcast Clouds27°C9 mph, SW100%10000m1014hPa71%
19-Jun-2024 18:00Overcast Clouds27°C9 mph, SW100%10000m1013hPa75%
19-Jun-2024 21:00Overcast Clouds26°C9 mph, W89%10000m1015hPa82%
20-Jun-2024 00:00Overcast Clouds25°C9 mph, W95%10000m1015hPa84%
20-Jun-2024 03:00Overcast Clouds25°C9 mph, NW100%10000m1013hPa86%
20-Jun-2024 06:00Overcast Clouds24°C9 mph, NW89%10000m1012hPa87%
20-Jun-2024 09:00Broken Clouds26°C9 mph, NW59%10000m1014hPa76%
20-Jun-2024 12:00Broken Clouds29°C0 mph, NE55%10000m1015hPa59%
20-Jun-2024 15:00Overcast Clouds30°C13 mph, W96%10000m1011hPa60%
20-Jun-2024 18:00Overcast Clouds28°C16 mph, NW98%10000m1011hPa68%
20-Jun-2024 21:00Overcast Clouds25°C13 mph, NW100%10000m1013hPa76%